Time;durP1;ratioP1;P1;durP2;ratioP2;P2;SDS_P1;SDS_P2;PMS_P1;PMS_P2;Temp;Humidity;BMP_temperature;BMP_pressure;BME280_temperature;BME280_humidity;BME280_pressure;Samples;Min_cycle;Max_cycle;Signal;HPM_P1;HPM_P2
2023/05/14 00:02:10;;;;;;;10.75;4.10;;;27.70;95.90;;;;;;5043644;28;20036;-52
2023/05/14 00:04:37;;;;;;;7.78;4.20;;;27.80;95.90;;;;;;5043726;28;20026;-45
2023/05/14 00:07:03;;;;;;;6.53;3.95;;;27.80;95.70;;;;;;5043253;28;20053;-45
2023/05/14 00:09:31;;;;;;;9.93;4.53;;;27.90;95.70;;;;;;5043418;28;20045;-45
2023/05/14 00:11:57;;;;;;;6.10;3.60;;;27.90;95.60;;;;;;5043472;28;20025;-45
2023/05/14 00:14:24;;;;;;;5.88;4.00;;;27.90;95.70;;;;;;5043673;28;20044;-46
2023/05/14 00:16:51;;;;;;;8.50;4.65;;;27.90;95.50;;;;;;5043410;28;20209;-45
2023/05/14 00:19:19;;;;;;;7.53;4.78;;;28.00;95.50;;;;;;5043523;28;20037;-51
2023/05/14 00:21:47;;;;;;;9.73;4.60;;;27.90;95.40;;;;;;5043596;28;20037;-47
2023/05/14 00:24:14;;;;;;;11.48;4.75;;;28.00;95.40;;;;;;5043578;28;20041;-45
2023/05/14 00:26:40;;;;;;;10.98;5.00;;;28.00;95.50;;;;;;5043624;28;20029;-45
2023/05/14 00:29:07;;;;;;;9.13;4.82;;;27.90;95.40;;;;;;5043777;28;20044;-48
2023/05/14 00:31:33;;;;;;;11.27;4.82;;;27.90;95.30;;;;;;5042925;28;20037;-45
2023/05/14 00:34:00;;;;;;;7.28;3.83;;;27.90;95.30;;;;;;5044011;28;20037;-44
2023/05/14 00:36:28;;;;;;;7.30;3.83;;;27.90;95.40;;;;;;5043829;28;20079;-44
2023/05/14 00:38:55;;;;;;;6.22;4.00;;;27.90;95.30;;;;;;5043273;28;20130;-46
2023/05/14 00:41:22;;;;;;;8.93;4.05;;;27.90;95.40;;;;;;5043532;28;20022;-45
2023/05/14 00:43:49;;;;;;;7.07;4.25;;;27.90;95.40;;;;;;5043919;28;20026;-50
2023/05/14 00:46:16;;;;;;;8.30;4.03;;;27.90;95.50;;;;;;5043339;28;20038;-47
2023/05/14 00:48:43;;;;;;;7.20;4.10;;;27.90;95.40;;;;;;5043812;28;20021;-46
2023/05/14 00:51:10;;;;;;;10.93;4.10;;;27.90;95.60;;;;;;5043731;28;20124;-46
2023/05/14 00:53:37;;;;;;;7.10;3.60;;;27.90;95.60;;;;;;5043573;28;20029;-45
2023/05/14 00:56:04;;;;;;;11.35;4.18;;;27.90;95.60;;;;;;5043340;28;20056;-45
2023/05/14 00:58:31;;;;;;;7.03;4.03;;;27.90;95.70;;;;;;5045799;28;20124;-47
2023/05/14 01:00:58;;;;;;;8.95;4.50;;;27.80;95.80;;;;;;5046992;28;20025;-50
2023/05/14 01:03:24;;;;;;;11.23;5.03;;;27.90;95.90;;;;;;5047337;28;20301;-45
2023/05/14 01:06:00;;;;;;;8.98;4.35;;;27.80;95.90;;;;;;5046985;28;20079;-45
2023/05/14 01:08:37;;;;;;;8.27;4.32;;;27.80;95.90;;;;;;5047451;28;20325;-44
2023/05/14 01:11:33;;;;;;;10.65;4.32;;;27.80;96.00;;;;;;5046933;28;20037;-48
2023/05/14 01:14:27;;;;;;;7.43;4.05;;;27.80;96.00;;;;;;5047413;28;20033;-45
2023/05/14 01:16:57;;;;;;;7.47;4.10;;;27.80;96.00;;;;;;5046671;28;20041;-46
2023/05/14 01:19:35;;;;;;;7.25;4.20;;;27.80;96.10;;;;;;5046736;28;20025;-44
2023/05/14 01:22:02;;;;;;;13.20;4.70;;;27.80;96.20;;;;;;5046615;28;20270;-45
2023/05/14 01:24:28;;;;;;;6.80;3.85;;;27.80;96.20;;;;;;5046808;28;20025;-49
2023/05/14 01:27:00;;;;;;;9.65;4.18;;;27.70;96.30;;;;;;5046688;28;20084;-44
2023/05/14 01:29:30;;;;;;;9.48;5.28;;;27.70;96.20;;;;;;5046488;28;20032;-49
2023/05/14 01:32:00;;;;;;;11.68;6.45;;;27.70;96.30;;;;;;5046493;28;20040;-44
2023/05/14 01:34:30;;;;;;;10.95;5.68;;;27.70;96.40;;;;;;5046561;28;20025;-46
2023/05/14 01:36:57;;;;;;;9.23;5.13;;;27.70;96.40;;;;;;5046371;28;20117;-45
2023/05/14 01:39:25;;;;;;;7.55;4.10;;;27.70;96.30;;;;;;5046436;28;20096;-45
2023/05/14 01:41:54;;;;;;;6.45;3.88;;;27.70;96.40;;;;;;5046257;28;20026;-53
2023/05/14 01:44:21;;;;;;;6.30;3.63;;;27.70;96.30;;;;;;5046453;28;20105;-46
2023/05/14 01:46:48;;;;;;;9.55;4.47;;;27.70;96.40;;;;;;5046207;28;20256;-44
2023/05/14 01:49:16;;;;;;;6.97;4.55;;;27.70;96.50;;;;;;5046153;28;20041;-46
2023/05/14 01:51:43;;;;;;;6.80;4.15;;;27.70;96.50;;;;;;5046443;28;20305;-45
2023/05/14 01:54:10;;;;;;;6.75;3.85;;;27.70;96.50;;;;;;5046658;28;20048;-49
2023/05/14 01:56:36;;;;;;;8.90;4.43;;;27.70;96.50;;;;;;5046036;28;20109;-48
2023/05/14 01:59:05;;;;;;;8.30;4.10;;;27.70;96.40;;;;;;5045910;28;20033;-45
2023/05/14 02:01:32;;;;;;;8.85;3.65;;;27.70;96.40;;;;;;5045962;28;20119;-45
2023/05/14 02:03:59;;;;;;;10.18;4.22;;;27.70;96.50;;;;;;5046400;28;20068;-48
2023/05/14 02:06:26;;;;;;;9.23;4.60;;;27.70;96.50;;;;;;5045909;28;20229;-50
2023/05/14 02:08:53;;;;;;;5.97;4.43;;;27.70;96.60;;;;;;5045795;28;20074;-45
2023/05/14 02:11:21;;;;;;;7.35;4.40;;;27.70;96.60;;;;;;5045870;28;20318;-46
2023/05/14 02:13:47;;;;;;;7.55;4.35;;;27.70;96.60;;;;;;5046122;28;20037;-45
2023/05/14 02:16:14;;;;;;;5.07;4.30;;;27.70;96.70;;;;;;5045707;28;20063;-44
2023/05/14 02:18:42;;;;;;;8.35;4.20;;;27.70;96.70;;;;;;5045939;28;20079;-46
2023/05/14 02:21:08;;;;;;;7.07;4.13;;;27.70;96.70;;;;;;5045631;28;20041;-49
2023/05/14 02:23:35;;;;;;;9.02;4.05;;;27.70;96.80;;;;;;5045883;28;20026;-45
2023/05/14 02:26:02;;;;;;;7.68;4.22;;;27.70;96.80;;;;;;5045515;28;20037;-45
2023/05/14 02:28:29;;;;;;;6.43;3.90;;;27.70;96.90;;;;;;5045797;28;20056;-51
2023/05/14 02:31:00;;;;;;;6.40;3.78;;;27.70;96.90;;;;;;5045474;28;20036;-45
2023/05/14 02:33:27;;;;;;;9.85;3.95;;;27.60;96.90;;;;;;5045684;28;20060;-51
2023/05/14 02:35:54;;;;;;;9.45;4.35;;;27.70;97.00;;;;;;5045380;28;20103;-47
2023/05/14 02:38:21;;;;;;;7.80;3.83;;;27.60;97.10;;;;;;5045497;28;20033;-48
2023/05/14 02:40:48;;;;;;;7.72;3.67;;;27.60;97.10;;;;;;5045267;28;20029;-46
2023/05/14 02:43:14;;;;;;;8.50;4.20;;;27.70;97.20;;;;;;5045627;28;20029;-44
2023/05/14 02:45:41;;;;;;;7.00;4.10;;;27.60;97.30;;;;;;5045189;28;20057;-45
2023/05/14 02:48:08;;;;;;;6.50;4.22;;;27.60;97.40;;;;;;5045352;28;20195;-46
2023/05/14 02:50:35;;;;;;;8.95;4.47;;;27.60;97.40;;;;;;5045110;28;20025;-50
2023/05/14 02:53:01;;;;;;;7.75;4.38;;;27.60;97.40;;;;;;5045010;28;20044;-44
2023/05/14 02:55:29;;;;;;;9.07;4.72;;;27.60;97.60;;;;;;5045097;28;20028;-45
2023/05/14 02:57:56;;;;;;;7.95;4.40;;;27.60;97.60;;;;;;5044767;28;20041;-45
2023/05/14 03:00:23;;;;;;;7.75;4.25;;;27.60;97.60;;;;;;5044948;28;20025;-49
2023/05/14 03:02:50;;;;;;;6.28;4.32;;;27.60;97.70;;;;;;5045032;28;20033;-51
2023/05/14 03:05:16;;;;;;;7.43;3.90;;;27.60;97.80;;;;;;5044878;28;20041;-45
2023/05/14 03:07:43;;;;;;;8.25;4.05;;;27.50;97.80;;;;;;5044747;28;20412;-46
2023/05/14 03:10:09;;;;;;;7.00;3.55;;;27.50;97.90;;;;;;5044704;28;20044;-46
2023/05/14 03:12:36;;;;;;;7.78;4.25;;;27.50;97.80;;;;;;5044458;28;20052;-45
2023/05/14 03:15:03;;;;;;;9.13;4.32;;;27.50;97.80;;;;;;5044735;28;20140;-45
2023/05/14 03:17:30;;;;;;;6.47;3.58;;;27.50;97.90;;;;;;5044766;28;20033;-48
2023/05/14 03:19:57;;;;;;;6.07;3.58;;;27.50;97.90;;;;;;5043614;28;20257;-50
2023/05/14 03:22:24;;;;;;;8.48;3.60;;;27.50;97.90;;;;;;5044649;28;20040;-44
2023/05/14 03:24:51;;;;;;;6.80;3.40;;;27.40;97.70;;;;;;5044488;28;20022;-45
2023/05/14 03:27:17;;;;;;;10.77;3.92;;;27.40;97.80;;;;;;5044319;28;20025;-46
2023/05/14 03:29:44;;;;;;;7.32;3.47;;;27.30;97.80;;;;;;5044389;28;20268;-44
2023/05/14 03:32:11;;;;;;;6.90;3.38;;;27.40;97.90;;;;;;5044346;28;20029;-44
2023/05/14 03:34:37;;;;;;;7.38;3.70;;;27.40;97.90;;;;;;5044213;28;20348;-44
2023/05/14 03:37:04;;;;;;;4.88;3.40;;;27.40;97.80;;;;;;5044305;28;20027;-50
2023/05/14 03:39:31;;;;;;;7.03;3.25;;;27.40;97.80;;;;;;5044484;28;20045;-45
2023/05/14 03:41:58;;;;;;;7.90;3.33;;;27.40;97.70;;;;;;5044156;28;20025;-44
2023/05/14 03:44:25;;;;;;;4.18;2.83;;;27.40;97.80;;;;;;5044182;28;20029;-50
2023/05/14 03:46:51;;;;;;;6.15;3.40;;;27.40;97.80;;;;;;5043999;28;20300;-45
2023/05/14 03:49:18;;;;;;;6.70;3.20;;;27.40;97.80;;;;;;5043967;28;20025;-45
2023/05/14 03:51:45;;;;;;;5.25;3.42;;;27.40;97.90;;;;;;5044064;28;20033;-44
2023/05/14 03:54:11;;;;;;;5.38;3.13;;;27.40;97.80;;;;;;5044503;28;20344;-44
2023/05/14 03:56:38;;;;;;;8.10;3.53;;;27.30;97.70;;;;;;5043862;28;20348;-44
2023/05/14 03:59:05;;;;;;;4.93;2.92;;;27.40;97.80;;;;;;5043792;28;20048;-54
2023/05/14 04:01:32;;;;;;;7.13;3.20;;;27.30;97.80;;;;;;5044125;28;20022;-46
2023/05/14 04:03:58;;;;;;;6.30;3.50;;;27.30;97.80;;;;;;5044183;28;20026;-44
2023/05/14 04:06:25;;;;;;;7.78;3.10;;;27.30;97.70;;;;;;5043895;28;20318;-45
2023/05/14 04:08:52;;;;;;;6.40;3.33;;;27.30;97.60;;;;;;5044276;28;20111;-45
2023/05/14 04:11:20;;;;;;;5.38;3.28;;;27.30;97.60;;;;;;5043758;28;20044;-46
2023/05/14 04:13:46;;;;;;;3.97;2.47;;;27.30;97.50;;;;;;5044126;28;20321;-44
2023/05/14 04:16:13;;;;;;;4.70;2.78;;;27.20;97.70;;;;;;5043943;28;20037;-45
2023/05/14 04:18:40;;;;;;;5.57;3.35;;;27.20;97.50;;;;;;5044381;28;20025;-45
2023/05/14 04:21:06;;;;;;;7.85;3.10;;;27.20;97.60;;;;;;5043721;28;20030;-44
2023/05/14 04:23:33;;;;;;;7.45;3.30;;;27.20;97.50;;;;;;5044063;28;20030;-45
2023/05/14 04:26:00;;;;;;;5.13;3.03;;;27.20;97.50;;;;;;5043698;28;20178;-46
2023/05/14 04:28:26;;;;;;;8.40;3.05;;;27.20;97.40;;;;;;5043878;28;20029;-45
2023/05/14 04:30:53;;;;;;;6.55;2.72;;;27.20;97.30;;;;;;5044082;28;20068;-46
2023/05/14 04:33:19;;;;;;;6.35;2.63;;;27.10;97.30;;;;;;5048037;28;20049;-49
2023/05/14 04:35:46;;;;;;;6.47;2.85;;;27.10;97.40;;;;;;5047920;28;20037;-50
2023/05/14 04:38:13;;;;;;;5.80;2.83;;;27.10;97.10;;;;;;5047831;28;20029;-45
2023/05/14 04:40:43;;;;;;;6.57;2.30;;;27.10;97.20;;;;;;5047919;28;20093;-45
2023/05/14 04:43:09;;;;;;;6.47;2.47;;;27.10;97.00;;;;;;5047591;28;20032;-51
2023/05/14 04:45:36;;;;;;;4.68;2.50;;;27.10;97.00;;;;;;5047488;28;20033;-45
2023/05/14 04:48:05;;;;;;;5.00;2.40;;;27.10;96.80;;;;;;5047704;28;20032;-47
2023/05/14 04:50:32;;;;;;;5.32;2.63;;;27.10;96.90;;;;;;5047318;28;20028;-46
2023/05/14 04:52:59;;;;;;;5.75;2.28;;;27.10;96.80;;;;;;5047744;28;20034;-44
2023/05/14 04:55:26;;;;;;;4.80;2.58;;;27.10;96.80;;;;;;5047419;28;20045;-44
2023/05/14 04:57:53;;;;;;;6.07;2.60;;;27.00;96.60;;;;;;5047023;28;20042;-45
2023/05/14 05:00:20;;;;;;;5.57;2.60;;;27.00;96.70;;;;;;5047131;28;20040;-45
2023/05/14 05:02:47;;;;;;;5.00;2.45;;;27.00;96.70;;;;;;5047301;28;20040;-46
2023/05/14 05:05:14;;;;;;;4.63;2.47;;;27.00;96.70;;;;;;5047009;28;20261;-45
2023/05/14 05:07:40;;;;;;;8.38;2.55;;;27.00;96.70;;;;;;5051641;28;20017;-54
2023/05/14 05:10:08;;;;;;;8.57;2.60;;;27.00;96.60;;;;;;5056378;28;20130;-45
2023/05/14 05:12:34;;;;;;;7.30;2.28;;;27.10;96.80;;;;;;5051351;28;20025;-48
2023/05/14 05:15:01;;;;;;;5.22;2.30;;;27.00;96.60;;;;;;5052046;28;20037;-45
2023/05/14 05:17:29;;;;;;;5.43;2.50;;;27.00;96.60;;;;;;5055193;28;20240;-42
2023/05/14 05:19:55;;;;;;;7.22;2.40;;;27.00;96.50;;;;;;5046680;28;20225;-42
2023/05/14 05:22:23;;;;;;;6.00;2.45;;;27.00;96.50;;;;;;5059162;28;20305;-41
2023/05/14 05:24:50;;;;;;;3.83;2.20;;;27.00;96.40;;;;;;5066746;28;20033;-41
2023/05/14 05:27:16;;;;;;;4.35;2.20;;;27.00;96.30;;;;;;5066651;28;20013;-43
2023/05/14 05:29:43;;;;;;;4.75;2.40;;;26.90;96.40;;;;;;5066910;28;20110;-45
2023/05/14 05:32:10;;;;;;;5.05;2.47;;;26.90;96.20;;;;;;5063165;28;20363;-45
2023/05/14 05:34:37;;;;;;;3.97;1.85;;;27.00;96.30;;;;;;5046518;28;20092;-42
2023/05/14 05:37:04;;;;;;;4.85;2.67;;;26.90;96.20;;;;;;5046710;28;20049;-48
2023/05/14 05:39:33;;;;;;;5.15;2.40;;;26.90;96.20;;;;;;5046699;28;20029;-43
2023/05/14 05:42:01;;;;;;;4.05;2.10;;;26.90;96.10;;;;;;5046323;28;20313;-49
2023/05/14 05:44:28;;;;;;;3.70;1.95;;;26.80;96.10;;;;;;5056999;28;20067;-44
2023/05/14 05:46:55;;;;;;;2.78;1.90;;;26.90;96.20;;;;;;5066320;28;20063;-43
2023/05/14 05:49:22;;;;;;;4.70;2.10;;;26.80;96.00;;;;;;5066134;28;20257;-48
2023/05/14 05:51:49;;;;;;;5.65;2.40;;;26.80;96.00;;;;;;5066120;28;20074;-45
2023/05/14 05:54:16;;;;;;;3.90;1.65;;;26.80;96.00;;;;;;5066142;28;20036;-43
2023/05/14 05:56:42;;;;;;;4.78;1.90;;;26.80;96.00;;;;;;5066079;28;20070;-44
2023/05/14 05:59:09;;;;;;;4.20;1.98;;;26.80;95.90;;;;;;5065957;28;20045;-42
2023/05/14 06:01:36;;;;;;;5.70;2.38;;;26.80;95.90;;;;;;5066138;28;20047;-42
2023/05/14 06:04:05;;;;;;;6.45;1.80;;;26.80;95.80;;;;;;5066343;28;20201;-42
2023/05/14 06:06:31;;;;;;;7.82;2.30;;;26.80;95.70;;;;;;5066182;28;20029;-44
2023/05/14 06:08:58;;;;;;;7.40;2.28;;;26.70;95.70;;;;;;5055826;28;20028;-41
2023/05/14 06:11:25;;;;;;;7.05;2.03;;;26.70;95.60;;;;;;5065874;28;20031;-40
2023/05/14 06:13:52;;;;;;;5.20;1.85;;;26.80;95.70;;;;;;5066381;28;20205;-44
2023/05/14 06:16:18;;;;;;;4.85;2.17;;;26.70;95.50;;;;;;5065960;28;20394;-40
2023/05/14 06:18:45;;;;;;;4.60;2.00;;;26.80;95.60;;;;;;5065985;28;20061;-40
2023/05/14 06:21:12;;;;;;;3.83;1.90;;;26.80;95.60;;;;;;5065702;28;20059;-41
2023/05/14 06:23:40;;;;;;;4.55;2.33;;;26.80;95.50;;;;;;5050069;28;20412;-44
2023/05/14 06:26:07;;;;;;;3.35;1.90;;;26.80;95.60;;;;;;5045587;28;20033;-41
2023/05/14 06:28:33;;;;;;;7.60;2.22;;;26.80;95.50;;;;;;5046055;28;20029;-40
2023/05/14 06:31:00;;;;;;;5.05;1.98;;;26.80;95.50;;;;;;5045497;28;20037;-47
2023/05/14 06:33:30;;;;;;;3.88;2.17;;;26.70;95.40;;;;;;5046018;28;20060;-42
2023/05/14 06:36:02;;;;;;;6.55;2.08;;;26.70;95.40;;;;;;5045475;28;20034;-42
2023/05/14 06:38:29;;;;;;;4.28;2.10;;;26.70;95.30;;;;;;5045472;28;20033;-48
2023/05/14 06:40:56;;;;;;;4.25;2.20;;;26.70;95.20;;;;;;5045487;28;20076;-46
2023/05/14 06:43:22;;;;;;;4.28;2.10;;;26.70;95.20;;;;;;5062723;28;20028;-46
2023/05/14 06:45:49;;;;;;;4.00;1.90;;;26.70;95.20;;;;;;5065219;28;20337;-41
2023/05/14 06:48:17;;;;;;;4.10;1.85;;;26.70;95.10;;;;;;5065305;28;20052;-41
2023/05/14 06:50:45;;;;;;;4.95;1.90;;;26.70;95.20;;;;;;5065079;28;20224;-40
2023/05/14 06:53:13;;;;;;;5.15;2.20;;;26.70;95.20;;;;;;5049285;28;20029;-40
2023/05/14 06:55:39;;;;;;;5.25;2.33;;;26.70;95.10;;;;;;5044995;28;20222;-42
2023/05/14 06:58:07;;;;;;;9.57;2.67;;;26.70;95.10;;;;;;5044867;28;20105;-42
2023/05/14 07:00:33;;;;;;;3.65;2.00;;;26.70;95.10;;;;;;5046594;28;20037;-44
2023/05/14 07:03:00;;;;;;;3.53;1.95;;;26.70;95.10;;;;;;5065018;28;20101;-41
2023/05/14 07:05:27;;;;;;;4.47;2.15;;;26.70;95.10;;;;;;5065061;28;20320;-45
2023/05/14 07:07:54;;;;;;;3.30;1.80;;;26.70;95.10;;;;;;5065283;28;20075;-41
2023/05/14 07:10:20;;;;;;;3.95;1.77;;;26.70;95.00;;;;;;5064884;28;20025;-47
2023/05/14 07:12:47;;;;;;;4.18;1.95;;;26.70;95.10;;;;;;5064921;28;20028;-41
2023/05/14 07:15:14;;;;;;;4.63;2.00;;;26.70;95.10;;;;;;5064625;28;20344;-40
2023/05/14 07:17:41;;;;;;;3.83;2.00;;;26.70;95.20;;;;;;5064780;28;20331;-49
2023/05/14 07:20:08;;;;;;;4.80;2.00;;;26.70;95.20;;;;;;5064600;28;20082;-42
2023/05/14 07:22:35;;;;;;;5.35;1.95;;;26.70;95.20;;;;;;5064644;28;20048;-42
2023/05/14 07:25:01;;;;;;;3.75;1.92;;;26.70;95.20;;;;;;5064466;28;20276;-49
2023/05/14 07:27:28;;;;;;;4.40;1.65;;;26.70;95.20;;;;;;5064508;28;20025;-41
2023/05/14 07:29:55;;;;;;;3.95;1.63;;;26.70;95.20;;;;;;5059541;28;20025;-41
2023/05/14 07:32:23;;;;;;;4.55;1.77;;;26.60;95.20;;;;;;5044324;28;20029;-45
2023/05/14 07:34:50;;;;;;;2.65;1.45;;;26.70;95.20;;;;;;5044431;28;20021;-41
2023/05/14 07:37:17;;;;;;;5.32;1.88;;;26.60;95.30;;;;;;5044301;28;20064;-49
2023/05/14 07:39:43;;;;;;;4.60;1.48;;;26.60;95.30;;;;;;5044106;28;20061;-45
2023/05/14 07:42:10;;;;;;;6.38;1.80;;;26.60;95.40;;;;;;5044398;28;20041;-42
2023/05/14 07:44:36;;;;;;;3.28;1.70;;;26.60;95.40;;;;;;5043987;28;20253;-42
2023/05/14 07:47:03;;;;;;;5.38;1.77;;;26.60;95.50;;;;;;5044209;28;20021;-42
2023/05/14 07:49:30;;;;;;;5.35;1.60;;;26.60;95.60;;;;;;5044046;28;20111;-42
2023/05/14 07:51:57;;;;;;;5.40;1.58;;;26.60;95.60;;;;;;5044058;28;20333;-43
2023/05/14 07:54:24;;;;;;;3.67;1.85;;;26.60;95.70;;;;;;5060318;28;20036;-41
2023/05/14 07:56:50;;;;;;;6.68;2.17;;;26.60;95.70;;;;;;5063798;28;20039;-44
2023/05/14 07:59:17;;;;;;;3.25;1.40;;;26.60;95.80;;;;;;5063708;28;20052;-44
2023/05/14 08:01:44;;;;;;;4.35;1.50;;;26.60;95.80;;;;;;5063925;28;20090;-48
2023/05/14 08:04:10;;;;;;;3.88;1.52;;;26.60;95.90;;;;;;5064289;28;20017;-45
2023/05/14 08:06:37;;;;;;;7.75;1.83;;;26.60;95.90;;;;;;5063471;28;20052;-46
2023/05/14 08:09:04;;;;;;;5.38;1.80;;;26.50;96.00;;;;;;5064345;28;20037;-42
2023/05/14 08:11:31;;;;;;;6.18;1.60;;;26.50;96.00;;;;;;5063734;28;20067;-42
2023/05/14 08:13:57;;;;;;;5.75;1.52;;;26.50;96.00;;;;;;5064255;28;20039;-44
2023/05/14 08:16:25;;;;;;;4.10;1.25;;;26.50;96.10;;;;;;5063797;28;20075;-42
2023/05/14 08:18:51;;;;;;;5.38;1.73;;;26.50;96.10;;;;;;5064050;28;20305;-41
2023/05/14 08:21:18;;;;;;;5.85;1.60;;;26.50;96.10;;;;;;5064057;28;20030;-42
2023/05/14 08:23:44;;;;;;;7.38;1.55;;;26.50;96.10;;;;;;5064079;28;20021;-42
2023/05/14 08:26:11;;;;;;;7.03;1.60;;;26.60;96.20;;;;;;5063604;28;20028;-41
2023/05/14 08:28:38;;;;;;;4.43;1.38;;;26.50;96.20;;;;;;5064019;28;20020;-39
2023/05/14 08:31:04;;;;;;;4.32;1.60;;;26.50;96.10;;;;;;5063605;28;20040;-41
2023/05/14 08:33:31;;;;;;;4.93;1.42;;;26.50;96.20;;;;;;5063893;28;20260;-47
2023/05/14 08:35:59;;;;;;;5.45;1.50;;;26.50;96.20;;;;;;5050610;28;20041;-41
2023/05/14 08:38:25;;;;;;;5.07;1.45;;;26.50;96.30;;;;;;5053507;28;20032;-42
2023/05/14 08:41:00;;;;;;;4.60;1.40;;;26.50;96.20;;;;;;5045791;28;20028;-42
2023/05/14 08:43:37;;;;;;;4.30;1.50;;;26.40;96.20;;;;;;5043538;28;20088;-42
2023/05/14 08:46:05;;;;;;;4.45;1.45;;;26.40;96.30;;;;;;5043427;28;20056;-42
2023/05/14 08:48:33;;;;;;;4.95;1.70;;;26.40;96.30;;;;;;5043864;28;20258;-42
2023/05/14 08:51:01;;;;;;;5.15;1.48;;;26.40;96.40;;;;;;5043569;28;20033;-41
2023/05/14 08:53:27;;;;;;;5.22;1.45;;;26.40;96.40;;;;;;5043695;28;20033;-42
2023/05/14 08:55:54;;;;;;;5.68;1.85;;;26.40;96.30;;;;;;5043560;28;20033;-42
2023/05/14 08:58:21;;;;;;;4.68;1.20;;;26.40;96.40;;;;;;5043282;28;20038;-43
2023/05/14 09:00:47;;;;;;;7.22;1.52;;;26.40;96.40;;;;;;5043330;28;20047;-43
2023/05/14 09:03:15;;;;;;;5.85;1.42;;;26.40;96.40;;;;;;5043761;28;20034;-42
2023/05/14 09:05:41;;;;;;;4.38;1.40;;;26.40;96.30;;;;;;5043384;28;20036;-43
2023/05/14 09:08:08;;;;;;;3.83;1.50;;;26.40;96.30;;;;;;5043516;28;20026;-49
2023/05/14 09:10:35;;;;;;;4.43;1.48;;;26.40;96.30;;;;;;5043436;28;20241;-44
2023/05/14 09:13:01;;;;;;;6.18;1.60;;;26.40;96.20;;;;;;5043673;28;20080;-42
2023/05/14 09:15:30;;;;;;;7.10;1.60;;;26.40;96.20;;;;;;5043278;28;20025;-43
2023/05/14 09:17:56;;;;;;;2.83;1.40;;;26.40;96.30;;;;;;5043764;28;20021;-42
2023/05/14 09:20:24;;;;;;;4.05;1.60;;;26.40;96.20;;;;;;5047584;28;20037;-42
2023/05/14 09:22:55;;;;;;;4.35;1.63;;;26.30;96.20;;;;;;5066715;28;20020;-50
2023/05/14 09:25:27;;;;;;;2.53;1.40;;;26.40;96.20;;;;;;5066738;28;20313;-43
2023/05/14 09:27:54;;;;;;;6.80;1.77;;;26.40;96.20;;;;;;5066902;28;20017;-46
2023/05/14 09:30:20;;;;;;;6.55;1.42;;;26.40;96.20;;;;;;5066781;28;20033;-50
2023/05/14 09:32:49;;;;;;;5.25;1.33;;;26.30;96.10;;;;;;5066790;28;20059;-50
2023/05/14 09:35:19;;;;;;;4.65;1.58;;;26.30;96.10;;;;;;5066542;28;20100;-51
2023/05/14 09:37:51;;;;;;;4.68;1.35;;;26.30;96.10;;;;;;5066565;28;20310;-51
2023/05/14 09:40:19;;;;;;;7.53;1.80;;;26.30;96.10;;;;;;5066394;28;20029;-41
2023/05/14 09:42:47;;;;;;;6.18;1.80;;;26.30;96.10;;;;;;5066741;28;20305;-43
2023/05/14 09:45:15;;;;;;;4.18;1.55;;;26.40;96.10;;;;;;5066236;28;20074;-43
2023/05/14 09:47:43;;;;;;;5.30;1.52;;;26.30;96.10;;;;;;5066519;28;20036;-43
2023/05/14 09:50:10;;;;;;;5.00;1.40;;;26.40;96.20;;;;;;5066325;28;20093;-43
2023/05/14 09:52:37;;;;;;;8.50;1.58;;;26.30;96.20;;;;;;5066272;28;20201;-42
2023/05/14 09:55:05;;;;;;;6.43;1.90;;;26.40;96.30;;;;;;5066198;28;20041;-42
2023/05/14 09:57:32;;;;;;;5.88;1.70;;;26.30;96.30;;;;;;5066028;28;20033;-43
2023/05/14 09:59:58;;;;;;;4.50;1.65;;;26.40;96.40;;;;;;5065915;28;20040;-44
2023/05/14 10:02:40;;;;;;;7.20;1.70;;;26.30;96.40;;;;;;5066115;28;20079;-42
2023/05/14 10:05:08;;;;;;;5.00;1.73;;;26.40;96.40;;;;;;5065896;28;20025;-42
2023/05/14 10:08:21;;;;;;;7.90;1.73;;;26.40;96.40;;;;;;5066099;28;20025;-43
2023/05/14 10:10:52;;;;;;;8.77;1.30;;;26.40;96.40;;;;;;5065975;28;20361;-43
2023/05/14 10:13:23;;;;;;;4.87;1.57;;;26.30;96.40;;;;;;5066212;28;20033;-41
2023/05/14 10:16:21;;;;;;;6.60;1.52;;;26.30;96.40;;;;;;5065837;28;20068;-43
2023/05/14 10:18:53;;;;;;;6.50;1.50;;;26.30;96.60;;;;;;5064906;28;20060;-42
2023/05/14 10:21:21;;;;;;;4.10;1.52;;;26.30;96.80;;;;;;5065767;28;20093;-42
2023/05/14 10:23:49;;;;;;;6.65;2.33;;;26.30;96.40;;;;;;5066088;28;20084;-44
2023/05/14 10:26:16;;;;;;;8.50;2.25;;;26.30;96.40;;;;;;5065468;28;20025;-46
2023/05/14 10:28:44;;;;;;;7.13;1.95;;;26.30;96.50;;;;;;5065703;28;20032;-42
2023/05/14 10:31:11;;;;;;;5.43;1.80;;;26.30;96.50;;;;;;5065347;28;20043;-42
2023/05/14 10:33:56;;;;;;;6.35;2.30;;;26.30;96.60;;;;;;5065768;28;20052;-43
2023/05/14 10:36:22;;;;;;;5.93;2.00;;;26.40;96.60;;;;;;5065441;28;20043;-45
2023/05/14 10:38:58;;;;;;;7.35;2.10;;;26.30;96.60;;;;;;5065577;28;20025;-44
2023/05/14 10:41:24;;;;;;;8.35;2.83;;;26.30;96.90;;;;;;5065266;28;20375;-42
2023/05/14 10:43:51;;;;;;;6.55;2.08;;;26.30;96.70;;;;;;5065702;28;20017;-42
2023/05/14 10:46:18;;;;;;;4.60;2.20;;;26.30;96.70;;;;;;5065219;28;20028;-47
2023/05/14 10:48:45;;;;;;;11.90;2.20;;;26.30;96.70;;;;;;5065537;28;20024;-43
2023/05/14 10:51:12;;;;;;;8.63;1.73;;;26.30;96.70;;;;;;5065106;28;20352;-43
2023/05/14 10:53:42;;;;;;;5.25;1.75;;;26.30;96.70;;;;;;5065291;28;20029;-46
2023/05/14 10:56:13;;;;;;;7.38;1.65;;;26.30;96.80;;;;;;5064985;28;20060;-42
2023/05/14 10:58:43;;;;;;;6.70;1.90;;;26.30;96.80;;;;;;5064588;28;20049;-49
2023/05/14 11:01:11;;;;;;;6.88;1.52;;;26.30;96.80;;;;;;5065109;28;20032;-44
2023/05/14 11:03:44;;;;;;;13.13;3.42;;;26.30;96.80;;;;;;5065040;28;20059;-42
2023/05/14 11:06:13;;;;;;;6.47;3.20;;;26.30;96.90;;;;;;5064677;28;20025;-44
2023/05/14 11:08:40;;;;;;;9.43;3.67;;;26.30;96.90;;;;;;5065174;28;20016;-46
2023/05/14 11:11:07;;;;;;;10.38;3.35;;;26.30;96.90;;;;;;5064679;28;20041;-43
2023/05/14 11:13:34;;;;;;;8.48;2.58;;;26.30;96.90;;;;;;5064857;28;20060;-42
2023/05/14 11:16:02;;;;;;;10.20;2.30;;;26.40;96.70;;;;;;5064589;28;20031;-41
2023/05/14 11:18:32;;;;;;;6.35;2.03;;;26.40;96.70;;;;;;5063829;28;20029;-43
2023/05/14 11:21:02;;;;;;;5.90;1.80;;;26.40;96.70;;;;;;5064169;28;20047;-46
2023/05/14 11:23:29;;;;;;;4.80;1.98;;;26.40;96.60;;;;;;5063767;28;20033;-43
2023/05/14 11:25:56;;;;;;;5.70;2.08;;;26.40;96.70;;;;;;5059808;28;20404;-42
2023/05/14 11:28:24;;;;;;;8.50;1.98;;;26.40;96.80;;;;;;5064506;28;20084;-42
2023/05/14 11:30:52;;;;;;;5.10;1.83;;;26.50;96.90;;;;;;5064145;28;20036;-42
2023/05/14 11:33:20;;;;;;;5.60;1.60;;;26.50;96.90;;;;;;5063471;28;20025;-43
2023/05/14 11:35:47;;;;;;;9.93;1.80;;;26.50;96.90;;;;;;5054658;28;20352;-43
2023/05/14 11:38:15;;;;;;;8.60;1.70;;;26.50;96.90;;;;;;5055416;28;20036;-50
2023/05/14 11:40:51;;;;;;;13.10;1.98;;;26.60;96.80;;;;;;5054210;28;20333;-40
2023/05/14 11:43:18;;;;;;;8.63;1.95;;;26.60;96.80;;;;;;5055311;28;20024;-44
2023/05/14 11:45:50;;;;;;;10.35;1.95;;;26.60;96.90;;;;;;5042593;28;20387;-42
2023/05/14 11:48:17;;;;;;;7.05;1.95;;;26.60;97.00;;;;;;5054759;28;20021;-43
2023/05/14 11:50:52;;;;;;;3.70;1.60;;;26.60;97.00;;;;;;5044240;28;20032;-43
2023/05/14 11:53:19;;;;;;;8.90;2.15;;;26.60;97.00;;;;;;5044536;28;20026;-43
2023/05/14 11:55:47;;;;;;;6.45;1.95;;;26.50;96.90;;;;;;5044022;28;20037;-42
2023/05/14 11:58:15;;;;;;;4.45;1.70;;;26.60;96.90;;;;;;5043321;28;20041;-47
2023/05/14 12:00:46;;;;;;;4.50;1.55;;;26.50;96.90;;;;;;5043920;28;20067;-40
2023/05/14 12:03:12;;;;;;;7.50;1.55;;;26.50;96.70;;;;;;5043932;28;20025;-43
2023/05/14 12:05:39;;;;;;;6.70;1.42;;;26.50;96.60;;;;;;5043935;28;20049;-41
2023/05/14 12:08:32;;;;;;;4.32;1.48;;;26.60;96.60;;;;;;5044095;28;20029;-55
2023/05/14 12:10:59;;;;;;;3.35;1.38;;;26.60;96.60;;;;;;5044208;28;20270;-44
2023/05/14 12:13:32;;;;;;;7.40;1.40;;;26.60;96.50;;;;;;5044016;28;20307;-45
2023/05/14 12:16:01;;;;;;;6.65;1.13;;;26.60;96.40;;;;;;5044126;28;20036;-43
2023/05/14 12:18:30;;;;;;;6.13;1.25;;;26.60;96.40;;;;;;5049702;28;20033;-43
2023/05/14 12:21:03;;;;;;;7.38;1.52;;;26.70;96.40;;;;;;5063946;28;20040;-43
2023/05/14 12:23:30;;;;;;;3.70;1.50;;;26.70;96.30;;;;;;5063648;28;20027;-44
2023/05/14 12:26:07;;;;;;;6.72;1.77;;;26.70;96.40;;;;;;5063726;28;20239;-41
2023/05/14 12:28:37;;;;;;;5.90;2.08;;;26.80;96.60;;;;;;5064125;28;20301;-44
2023/05/14 12:31:04;;;;;;;6.45;2.10;;;26.80;96.60;;;;;;5063614;28;20079;-46
2023/05/14 12:33:31;;;;;;;5.15;2.40;;;26.80;96.60;;;;;;5063889;28;20323;-42
2023/05/14 12:36:00;;;;;;;5.95;2.70;;;26.90;96.60;;;;;;5057956;28;20029;-46
2023/05/14 12:38:27;;;;;;;6.03;2.67;;;26.90;96.50;;;;;;5043806;28;20025;-48
2023/05/14 12:40:54;;;;;;;7.43;3.28;;;26.90;96.60;;;;;;5043421;28;20038;-50
2023/05/14 12:43:21;;;;;;;6.00;3.53;;;26.90;96.50;;;;;;5043494;28;20017;-46
2023/05/14 12:45:47;;;;;;;6.18;3.70;;;27.00;96.50;;;;;;5046104;28;20049;-43
2023/05/14 12:48:14;;;;;;;13.27;4.53;;;27.00;96.50;;;;;;5055441;28;20099;-51
2023/05/14 12:50:41;;;;;;;7.78;4.00;;;27.00;96.30;;;;;;5048611;28;20371;-52